Park Rapids, Minnesota
Current Conditions -  °F | °C
As of 8:53 AM on Saturday 25 Oct 2014 (Local Time) from KPKD Reporting Station
Clear Clear  
Wind Chill: 36°   Ceiling: Unl
Heat Index: 41°   Visibility: 10mi
Dew Point: 33°   Wind: 7mph
Humidity: 73%   Direction: 280°W
Pressure: 30.01"   Gusts: NA
Location:  46.92°N, 95.06°W
Report Text: KPKD 251353Z AUTO 28006KT 10SM CLR 05/01 A3001 RMK AO2 SLP170 T00500006 TSNO
Loading
Personal Weather Stations






























Interactive Weather Map
Tropical Storm Tracking
New forecast layout! Learn more

10-Day Weather Forecast

Advertisements
Track Severe Weather on mobile